Canandaigua, New York
Current Conditions -  °F | °C
As of 10:04 PM on Wednesday 22 Oct 2014 (Local Time) from KPEO Reporting Station
Overcast Overcast  
Wind Chill: 43°   Ceiling: 1600
Heat Index: 48°   Visibility: 10mi
Dew Point: 42°   Wind: 13mph
Humidity: 80%   Direction: 350°N
Pressure: 30.13"   Gusts: 26mph
Location:  42.89°N, 77.28°W
Report Text: KPEO 230204Z AUTO 35011G23KT 10SM OVC016 09/06 A3013 RMK AO2 T00890056
Loading
Personal Weather Stations






























Interactive Weather Map New forecast layout! Learn more

10-Day Weather Forecast

Advertisements
Track Severe Weather on mobile